Time,TemperatureF,DewpointF,PressureIn,WindDirection,WindDirectionDegrees,WindSpeedMPH,WindSpeedGustMPH,Humidity,HourlyPrecipIn,Conditions,Clouds,dailyrainin,SoftwareType,DateUTC
2013-09-14 00:07:00,58.8,51.6,29.93,East,90,0.0,-999.0,77,-99.99,,,0.00,Acu-Link.com,2013-09-14 05:07:00,
2013-09-14 00:22:00,59.2,51.6,29.93,NE,45,0.0,-999.0,76,-99.99,,,0.00,Acu-Link.com,2013-09-14 05:22:00,
2013-09-14 00:37:00,58.8,51.6,29.93,ENE,67,0.0,-999.0,77,-99.99,,,0.00,Acu-Link.com,2013-09-14 05:37:00,
2013-09-14 00:53:00,58.1,51.6,29.93,ESE,112,0.0,-999.0,79,-99.99,,,0.00,Acu-Link.com,2013-09-14 05:53:00,
2013-09-14 01:08:00,57.4,51.3,29.92,East,90,0.0,-999.0,80,-99.99,,,0.00,Acu-Link.com,2013-09-14 06:08:00,
2013-09-14 01:23:00,56.3,51.2,29.93,ENE,67,0.0,-999.0,83,-99.99,,,0.00,Acu-Link.com,2013-09-14 06:23:00,
2013-09-14 01:38:00,55.4,51.0,29.93,North,0,0.0,-999.0,85,-99.99,,,0.00,Acu-Link.com,2013-09-14 06:38:00,
2013-09-14 01:54:00,54.1,50.9,29.93,North,0,0.0,-999.0,89,-99.99,,,0.00,Acu-Link.com,2013-09-14 06:54:00,
2013-09-14 02:09:00,54.0,50.5,29.93,ESE,112,0.0,-999.0,88,-99.99,,,0.00,Acu-Link.com,2013-09-14 07:09:00,
2013-09-14 02:24:00,53.2,50.0,29.93,ESE,112,0.0,-999.0,89,-99.99,,,0.00,Acu-Link.com,2013-09-14 07:24:00,
2013-09-14 02:40:00,52.9,50.3,29.92,ENE,67,0.0,-999.0,91,-99.99,,,0.00,Acu-Link.com,2013-09-14 07:40:00,
2013-09-14 02:56:00,52.9,50.6,29.93,East,90,0.0,-999.0,92,-99.99,,,0.00,Acu-Link.com,2013-09-14 07:56:00,
2013-09-14 03:11:00,53.1,50.5,29.93,NW,315,0.0,-999.0,91,-99.99,,,0.00,Acu-Link.com,2013-09-14 08:11:00,
2013-09-14 03:27:00,53.6,51.0,29.93,ESE,112,0.0,-999.0,91,-99.99,,,0.00,Acu-Link.com,2013-09-14 08:27:00,
2013-09-14 03:42:00,53.4,50.8,29.93,ESE,112,0.0,-999.0,91,-99.99,,,0.00,Acu-Link.com,2013-09-14 08:42:00,
2013-09-14 03:57:00,53.2,51.2,29.93,SE,135,0.0,-999.0,93,-99.99,,,0.00,Acu-Link.com,2013-09-14 08:57:00,
2013-09-14 04:12:00,53.4,52.0,29.93,East,90,0.0,-999.0,95,-99.99,,,0.00,Acu-Link.com,2013-09-14 09:12:00,
2013-09-14 04:27:00,53.4,51.7,29.93,ENE,67,0.0,-999.0,94,-99.99,,,0.00,Acu-Link.com,2013-09-14 09:27:00,
2013-09-14 04:42:00,53.4,51.7,29.93,East,90,0.0,-999.0,94,-99.99,,,0.00,Acu-Link.com,2013-09-14 09:42:00,
2013-09-14 04:58:00,53.2,51.8,29.93,ENE,67,0.0,-999.0,95,-99.99,,,0.00,Acu-Link.com,2013-09-14 09:58:00,
2013-09-14 05:13:00,52.9,51.5,29.94,SE,135,0.0,-999.0,95,-99.99,,,0.00,Acu-Link.com,2013-09-14 10:13:00,
2013-09-14 05:28:00,52.9,51.5,29.94,SE,135,0.0,-999.0,95,-99.99,,,0.00,Acu-Link.com,2013-09-14 10:28:00,
2013-09-14 05:44:00,52.2,50.8,29.94,SE,135,0.0,-999.0,95,-99.99,,,0.00,Acu-Link.com,2013-09-14 10:44:00,
2013-09-14 05:59:00,52.0,51.2,29.95,ENE,67,0.0,-999.0,97,-99.99,,,0.00,Acu-Link.com,2013-09-14 10:59:00,
2013-09-14 06:14:00,51.8,51.0,29.95,East,90,0.0,-999.0,97,-99.99,,,0.00,Acu-Link.com,2013-09-14 11:14:00,
2013-09-14 06:29:00,51.8,51.0,29.95,East,90,0.0,-999.0,97,-99.99,,,0.00,Acu-Link.com,2013-09-14 11:29:00,
2013-09-14 06:45:00,52.5,51.7,29.96,East,90,0.0,-999.0,97,-99.99,,,0.00,Acu-Link.com,2013-09-14 11:45:00,
2013-09-14 07:00:00,52.3,51.5,29.96,ESE,112,0.0,-999.0,97,-99.99,,,0.00,Acu-Link.com,2013-09-14 12:00:00,
2013-09-14 07:16:00,52.7,51.9,29.96,ESE,112,0.0,-999.0,97,-99.99,,,0.00,Acu-Link.com,2013-09-14 12:16:00,
2013-09-14 07:31:00,54.3,52.6,29.97,East,90,0.0,-999.0,94,-99.99,,,0.00,Acu-Link.com,2013-09-14 12:31:00,
2013-09-14 07:46:00,56.8,53.6,29.97,East,90,0.0,-999.0,89,-99.99,,,0.00,Acu-Link.com,2013-09-14 12:46:00,
2013-09-14 08:01:00,58.3,54.8,29.98,East,90,2.2,-999.0,88,-99.99,,,0.00,Acu-Link.com,2013-09-14 13:01:00,
2013-09-14 08:17:00,59.9,54.7,29.98,NE,45,2.7,-999.0,83,-99.99,,,0.00,Acu-Link.com,2013-09-14 13:17:00,
2013-09-14 08:32:00,61.5,56.0,29.98,SE,135,4.2,-999.0,82,-99.99,,,0.00,Acu-Link.com,2013-09-14 13:32:00,
2013-09-14 08:47:00,62.6,55.6,29.99,ESE,112,1.7,-999.0,78,-99.99,,,0.00,Acu-Link.com,2013-09-14 13:47:00,
2013-09-14 09:02:00,64.2,56.5,29.99,ESE,112,4.2,-999.0,76,-99.99,,,0.00,Acu-Link.com,2013-09-14 14:02:00,
2013-09-14 09:18:00,66.4,56.7,29.99,ESE,112,2.7,-999.0,71,-99.99,,,0.00,Acu-Link.com,2013-09-14 14:18:00,
2013-09-14 09:33:00,66.7,55.8,29.99,NE,45,3.2,-999.0,68,-99.99,,,0.00,Acu-Link.com,2013-09-14 14:33:00,
2013-09-14 09:48:00,67.1,54.9,29.99,SE,135,3.7,-999.0,65,-99.99,,,0.00,Acu-Link.com,2013-09-14 14:48:00,
2013-09-14 10:04:00,67.6,54.5,29.99,SE,135,5.8,-999.0,63,-99.99,,,0.00,Acu-Link.com,2013-09-14 15:04:00,
2013-09-14 10:19:00,69.8,55.7,29.99,SSE,157,3.7,-999.0,61,-99.99,,,0.00,Acu-Link.com,2013-09-14 15:19:00,
2013-09-14 10:35:00,70.9,55.8,29.99,WNW,292,3.2,-999.0,59,-99.99,,,0.00,Acu-Link.com,2013-09-14 15:35:00,
2013-09-14 10:50:00,71.2,55.7,29.99,ESE,112,2.7,-999.0,58,-99.99,,,0.00,Acu-Link.com,2013-09-14 15:50:00,
2013-09-14 11:07:00,71.6,55.1,29.99,ESE,112,2.2,-999.0,56,-99.99,,,0.00,Acu-Link.com,2013-09-14 16:07:00,
2013-09-14 11:22:00,73.8,55.1,29.99,East,90,3.7,-999.0,52,-99.99,,,0.00,Acu-Link.com,2013-09-14 16:22:00,
2013-09-14 11:37:00,74.7,56.4,29.98,ESE,112,4.7,-999.0,53,-99.99,,,0.00,Acu-Link.com,2013-09-14 16:37:00,
2013-09-14 11:52:00,75.2,53.6,29.99,ESE,112,6.3,-999.0,47,-99.99,,,0.00,Acu-Link.com,2013-09-14 16:52:00,
2013-09-14 12:07:00,74.3,52.7,29.98,ESE,112,2.7,-999.0,47,-99.99,,,0.00,Acu-Link.com,2013-09-14 17:07:00,
2013-09-14 12:22:00,75.2,54.1,29.98,South,180,8.9,-999.0,48,-99.99,,,0.00,Acu-Link.com,2013-09-14 17:22:00,
2013-09-14 12:38:00,76.1,52.6,29.98,SSE,157,6.3,-999.0,44,-99.99,,,0.00,Acu-Link.com,2013-09-14 17:38:00,
2013-09-14 12:53:00,77.0,54.6,29.98,South,180,2.7,-999.0,46,-99.99,,,0.00,Acu-Link.com,2013-09-14 17:53:00,
2013-09-14 13:08:00,76.1,52.0,29.97,ESE,112,2.2,-999.0,43,-99.99,,,0.00,Acu-Link.com,2013-09-14 18:08:00,
2013-09-14 13:23:00,77.2,52.3,29.96,SSE,157,4.7,-999.0,42,-99.99,,,0.00,Acu-Link.com,2013-09-14 18:23:00,
2013-09-14 13:38:00,77.9,52.9,29.96,ESE,112,4.2,-999.0,42,-99.99,,,0.00,Acu-Link.com,2013-09-14 18:38:00,
2013-09-14 13:53:00,79.3,54.2,29.95,SSE,157,6.8,-999.0,42,-99.99,,,0.00,Acu-Link.com,2013-09-14 18:53:00,
2013-09-14 14:08:00,79.7,54.6,29.95,NNW,337,1.7,-999.0,42,-99.99,,,0.00,Acu-Link.com,2013-09-14 19:08:00,
2013-09-14 14:23:00,80.1,53.6,29.94,South,180,4.7,-999.0,40,-99.99,,,0.00,Acu-Link.com,2013-09-14 19:23:00,
2013-09-14 14:39:00,81.7,53.6,29.93,ENE,67,2.7,-999.0,38,-99.99,,,0.00,Acu-Link.com,2013-09-14 19:39:00,
2013-09-14 14:54:00,79.0,52.6,29.94,WSW,247,3.2,-999.0,40,-99.99,,,0.00,Acu-Link.com,2013-09-14 19:54:00,
2013-09-14 15:10:00,79.9,54.7,29.92,South,180,2.2,-999.0,42,-99.99,,,0.00,Acu-Link.com,2013-09-14 20:10:00,
2013-09-14 15:25:00,78.3,52.0,29.92,NNW,337,3.7,-999.0,40,-99.99,,,0.00,Acu-Link.com,2013-09-14 20:25:00,
2013-09-14 15:40:00,78.6,52.2,29.91,ESE,112,2.7,-999.0,40,-99.99,,,0.00,Acu-Link.com,2013-09-14 20:40:00,
2013-09-14 15:55:00,79.0,53.3,29.91,NNE,22,2.2,-999.0,41,-99.99,,,0.00,Acu-Link.com,2013-09-14 20:55:00,
2013-09-14 16:10:00,77.5,49.9,29.90,ESE,112,2.2,-999.0,38,-99.99,,,0.00,Acu-Link.com,2013-09-14 21:10:00,
2013-09-14 16:26:00,81.0,53.0,29.90,ESE,112,1.7,-999.0,38,-99.99,,,0.00,Acu-Link.com,2013-09-14 21:26:00,
2013-09-14 16:41:00,79.5,52.4,29.89,South,180,2.2,-999.0,39,-99.99,,,0.00,Acu-Link.com,2013-09-14 21:41:00,
2013-09-14 16:56:00,78.4,50.7,29.89,South,180,1.1,-999.0,38,-99.99,,,0.00,Acu-Link.com,2013-09-14 21:56:00,
2013-09-14 17:11:00,78.6,51.6,29.89,SSW,202,2.7,-999.0,39,-99.99,,,0.00,Acu-Link.com,2013-09-14 22:11:00,
2013-09-14 17:26:00,78.3,52.6,29.89,North,0,2.2,-999.0,41,-99.99,,,0.00,Acu-Link.com,2013-09-14 22:26:00,
2013-09-14 17:42:00,77.9,53.6,29.89,SE,135,2.7,-999.0,43,-99.99,,,0.00,Acu-Link.com,2013-09-14 22:42:00,
2013-09-14 17:57:00,76.6,55.4,29.90,SE,135,0.0,-999.0,48,-99.99,,,0.00,Acu-Link.com,2013-09-14 22:57:00,
2013-09-14 18:12:00,75.2,57.4,29.89,South,180,0.0,-999.0,54,-99.99,,,0.00,Acu-Link.com,2013-09-14 23:12:00,
2013-09-14 18:27:00,73.2,58.5,29.89,NNE,22,0.0,-999.0,60,-99.99,,,0.00,Acu-Link.com,2013-09-14 23:27:00,
2013-09-14 18:43:00,72.0,59.6,29.89,ENE,67,0.0,-999.0,65,-99.99,,,0.00,Acu-Link.com,2013-09-14 23:43:00,
2013-09-14 18:58:00,70.9,59.8,29.89,SSE,157,0.0,-999.0,68,-99.99,,,0.00,Acu-Link.com,2013-09-14 23:58:00,
2013-09-14 19:13:00,68.9,58.3,29.89,NE,45,0.0,-999.0,69,-99.99,,,0.00,Acu-Link.com,2013-09-15 00:13:00,
2013-09-14 19:29:00,66.7,58.1,29.89,East,90,0.0,-999.0,74,-99.99,,,0.00,Acu-Link.com,2013-09-15 00:29:00,
2013-09-14 19:44:00,65.3,57.5,29.89,ESE,112,0.0,-999.0,76,-99.99,,,0.00,Acu-Link.com,2013-09-15 00:44:00,
2013-09-14 19:59:00,63.9,57.3,29.89,ESE,112,0.0,-999.0,79,-99.99,,,0.00,Acu-Link.com,2013-09-15 00:59:00,
2013-09-14 20:14:00,63.1,56.1,29.89,SE,135,0.0,-999.0,78,-99.99,,,0.00,Acu-Link.com,2013-09-15 01:14:00,
2013-09-14 20:29:00,62.8,55.8,29.89,East,90,0.0,-999.0,78,-99.99,,,0.00,Acu-Link.com,2013-09-15 01:29:00,
2013-09-14 20:45:00,62.6,55.3,29.90,ENE,67,0.0,-999.0,77,-99.99,,,0.00,Acu-Link.com,2013-09-15 01:45:00,
2013-09-14 21:00:00,62.4,55.1,29.90,ESE,112,0.0,-999.0,77,-99.99,,,0.00,Acu-Link.com,2013-09-15 02:00:00,
2013-09-14 21:15:00,61.7,55.1,29.91,East,90,0.0,-999.0,79,-99.99,,,0.00,Acu-Link.com,2013-09-15 02:15:00,
2013-09-14 21:30:00,61.2,55.3,29.90,East,90,0.0,-999.0,81,-99.99,,,0.00,Acu-Link.com,2013-09-15 02:30:00,
2013-09-14 21:46:00,61.3,55.1,29.91,East,90,0.0,-999.0,80,-99.99,,,0.00,Acu-Link.com,2013-09-15 02:46:00,
2013-09-14 22:01:00,61.7,55.1,29.91,ESE,112,1.1,-999.0,79,-99.99,,,0.00,Acu-Link.com,2013-09-15 03:01:00,
2013-09-14 22:17:00,63.1,55.4,29.91,NNW,337,1.1,-999.0,76,-99.99,,,0.00,Acu-Link.com,2013-09-15 03:17:00,
2013-09-14 22:32:00,63.5,55.8,29.91,ESE,112,2.7,-999.0,76,-99.99,,,0.00,Acu-Link.com,2013-09-15 03:32:00,
2013-09-14 22:47:00,63.5,55.8,29.91,ESE,112,1.7,-999.0,76,-99.99,,,0.00,Acu-Link.com,2013-09-15 03:47:00,
2013-09-14 23:03:00,63.3,55.6,29.91,East,90,0.0,-999.0,76,-99.99,,,0.00,Acu-Link.com,2013-09-15 04:03:00,
2013-09-14 23:18:00,62.8,55.5,29.91,SE,135,0.0,-999.0,77,-99.99,,,0.00,Acu-Link.com,2013-09-15 04:18:00,
2013-09-14 23:33:00,62.4,55.4,29.91,NE,45,0.0,-999.0,78,-99.99,,,0.00,Acu-Link.com,2013-09-15 04:33:00,
2013-09-14 23:48:00,62.1,55.2,29.91,SE,135,0.0,-999.0,78,-99.99,,,0.00,Acu-Link.com,2013-09-15 04:48:00,